sensor_id;sensor_type;location;lat;lon;timestamp;temperature;humidity
15426;DHT22;7812;50.072;7.036;2022-09-27T00:00:32;10.00;99.90
15426;DHT22;7812;50.072;7.036;2022-09-27T00:02:58;10.00;99.90
15426;DHT22;7812;50.072;7.036;2022-09-27T00:05:24;10.00;99.90
15426;DHT22;7812;50.072;7.036;2022-09-27T00:07:49;9.90;99.90
15426;DHT22;7812;50.072;7.036;2022-09-27T00:10:15;9.80;99.90
15426;DHT22;7812;50.072;7.036;2022-09-27T00:12:41;9.80;99.90
15426;DHT22;7812;50.072;7.036;2022-09-27T00:15:07;9.80;99.90
15426;DHT22;7812;50.072;7.036;2022-09-27T00:17:34;9.70;99.90
15426;DHT22;7812;50.072;7.036;2022-09-27T00:20:01;9.70;99.90
15426;DHT22;7812;50.072;7.036;2022-09-27T00:22:27;9.60;99.90
15426;DHT22;7812;50.072;7.036;2022-09-27T00:24:53;9.60;99.90
15426;DHT22;7812;50.072;7.036;2022-09-27T00:27:19;9.70;99.90
15426;DHT22;7812;50.072;7.036;2022-09-27T00:29:45;9.70;99.90
15426;DHT22;7812;50.072;7.036;2022-09-27T00:32:12;9.70;99.90
15426;DHT22;7812;50.072;7.036;2022-09-27T00:34:39;9.60;99.90
15426;DHT22;7812;50.072;7.036;2022-09-27T00:37:05;9.60;99.90
15426;DHT22;7812;50.072;7.036;2022-09-27T00:39:31;9.60;99.90
15426;DHT22;7812;50.072;7.036;2022-09-27T00:41:57;9.60;99.90
15426;DHT22;7812;50.072;7.036;2022-09-27T00:52:23;9.60;99.90
15426;DHT22;7812;50.072;7.036;2022-09-27T00:55:02;9.60;99.90
15426;DHT22;7812;50.072;7.036;2022-09-27T00:57:29;9.60;99.90
15426;DHT22;7812;50.072;7.036;2022-09-27T01:00:06;9.60;99.90
15426;DHT22;7812;50.072;7.036;2022-09-27T01:02:32;9.60;99.90
15426;DHT22;7812;50.072;7.036;2022-09-27T01:05:00;9.60;99.90
15426;DHT22;7812;50.072;7.036;2022-09-27T01:07:27;9.50;99.90
15426;DHT22;7812;50.072;7.036;2022-09-27T01:09:53;9.50;99.90
15426;DHT22;7812;50.072;7.036;2022-09-27T01:21:05;9.50;99.90
15426;DHT22;7812;50.072;7.036;2022-09-27T01:23:48;9.50;99.90
15426;DHT22;7812;50.072;7.036;2022-09-27T01:40:22;9.30;99.90
15426;DHT22;7812;50.072;7.036;2022-09-27T01:42:52;9.30;99.90
15426;DHT22;7812;50.072;7.036;2022-09-27T01:45:25;9.20;99.90
15426;DHT22;7812;50.072;7.036;2022-09-27T01:48:06;9.10;99.90
15426;DHT22;7812;50.072;7.036;2022-09-27T01:51:05;9.10;99.90
15426;DHT22;7812;50.072;7.036;2022-09-27T01:53:51;9.10;99.90
15426;DHT22;7812;50.072;7.036;2022-09-27T01:56:34;9.20;99.90
15426;DHT22;7812;50.072;7.036;2022-09-27T02:01:38;9.10;99.90
15426;DHT22;7812;50.072;7.036;2022-09-27T02:04:09;9.10;99.90
15426;DHT22;7812;50.072;7.036;2022-09-27T02:06:40;9.10;99.90
15426;DHT22;7812;50.072;7.036;2022-09-27T02:09:16;9.10;99.90
15426;DHT22;7812;50.072;7.036;2022-09-27T02:11:49;9.10;99.90
15426;DHT22;7812;50.072;7.036;2022-09-27T02:22:34;9.10;99.90
15426;DHT22;7812;50.072;7.036;2022-09-27T02:30:17;8.80;99.90
15426;DHT22;7812;50.072;7.036;2022-09-27T02:32:44;8.90;99.90
15426;DHT22;7812;50.072;7.036;2022-09-27T02:35:23;8.80;99.90
15426;DHT22;7812;50.072;7.036;2022-09-27T02:37:50;8.90;99.90
15426;DHT22;7812;50.072;7.036;2022-09-27T02:40:16;8.80;99.90
15426;DHT22;7812;50.072;7.036;2022-09-27T02:42:43;8.80;99.90
15426;DHT22;7812;50.072;7.036;2022-09-27T02:45:10;8.90;99.90
15426;DHT22;7812;50.072;7.036;2022-09-27T02:53:11;9.10;99.90
15426;DHT22;7812;50.072;7.036;2022-09-27T02:56:13;9.10;99.90
15426;DHT22;7812;50.072;7.036;2022-09-27T03:01:36;9.00;99.90
15426;DHT22;7812;50.072;7.036;2022-09-27T03:04:33;9.10;99.90
15426;DHT22;7812;50.072;7.036;2022-09-27T03:07:02;9.10;99.90
15426;DHT22;7812;50.072;7.036;2022-09-27T03:09:38;9.10;99.90
15426;DHT22;7812;50.072;7.036;2022-09-27T03:12:05;9.10;99.90
15426;DHT22;7812;50.072;7.036;2022-09-27T03:14:30;9.10;99.90
15426;DHT22;7812;50.072;7.036;2022-09-27T03:16:56;9.10;99.90
15426;DHT22;7812;50.072;7.036;2022-09-27T03:19:22;9.10;99.90
15426;DHT22;7812;50.072;7.036;2022-09-27T03:21:49;9.10;99.90
15426;DHT22;7812;50.072;7.036;2022-09-27T03:24:14;9.00;99.90
15426;DHT22;7812;50.072;7.036;2022-09-27T03:26:40;9.00;99.90
15426;DHT22;7812;50.072;7.036;2022-09-27T03:29:06;9.00;99.90
15426;DHT22;7812;50.072;7.036;2022-09-27T03:31:31;9.00;99.90
15426;DHT22;7812;50.072;7.036;2022-09-27T03:33:57;9.00;99.90
15426;DHT22;7812;50.072;7.036;2022-09-27T03:36:23;8.90;99.90
15426;DHT22;7812;50.072;7.036;2022-09-27T03:38:48;8.90;99.90
15426;DHT22;7812;50.072;7.036;2022-09-27T03:41:14;9.00;99.90
15426;DHT22;7812;50.072;7.036;2022-09-27T03:43:40;9.00;99.90
15426;DHT22;7812;50.072;7.036;2022-09-27T03:46:06;9.00;99.90
15426;DHT22;7812;50.072;7.036;2022-09-27T03:48:32;9.00;99.90
15426;DHT22;7812;50.072;7.036;2022-09-27T03:50:57;9.00;99.90
15426;DHT22;7812;50.072;7.036;2022-09-27T03:53:23;9.00;99.90
15426;DHT22;7812;50.072;7.036;2022-09-27T03:55:49;9.00;99.90
15426;DHT22;7812;50.072;7.036;2022-09-27T03:58:15;9.00;99.90
15426;DHT22;7812;50.072;7.036;2022-09-27T04:00:40;9.00;99.90
15426;DHT22;7812;50.072;7.036;2022-09-27T04:03:08;9.00;99.90
15426;DHT22;7812;50.072;7.036;2022-09-27T04:05:34;9.00;99.90
15426;DHT22;7812;50.072;7.036;2022-09-27T04:07:59;9.00;99.90
15426;DHT22;7812;50.072;7.036;2022-09-27T04:10:25;9.00;99.90
15426;DHT22;7812;50.072;7.036;2022-09-27T04:12:51;9.00;99.90
15426;DHT22;7812;50.072;7.036;2022-09-27T04:15:17;9.00;99.90
15426;DHT22;7812;50.072;7.036;2022-09-27T04:17:42;9.00;99.90
15426;DHT22;7812;50.072;7.036;2022-09-27T04:20:09;9.00;99.90
15426;DHT22;7812;50.072;7.036;2022-09-27T04:22:39;9.00;99.90
15426;DHT22;7812;50.072;7.036;2022-09-27T04:25:07;9.00;99.90
15426;DHT22;7812;50.072;7.036;2022-09-27T04:27:34;9.00;99.90
15426;DHT22;7812;50.072;7.036;2022-09-27T04:29:59;9.00;99.90
15426;DHT22;7812;50.072;7.036;2022-09-27T04:32:25;8.90;99.90
15426;DHT22;7812;50.072;7.036;2022-09-27T04:34:50;8.90;99.90
15426;DHT22;7812;50.072;7.036;2022-09-27T04:37:35;8.90;99.90
15426;DHT22;7812;50.072;7.036;2022-09-27T04:40:02;8.90;99.90
15426;DHT22;7812;50.072;7.036;2022-09-27T04:42:28;8.80;99.90
15426;DHT22;7812;50.072;7.036;2022-09-27T04:44:54;8.80;99.90
15426;DHT22;7812;50.072;7.036;2022-09-27T04:47:20;8.80;99.90
15426;DHT22;7812;50.072;7.036;2022-09-27T04:49:46;8.80;99.90
15426;DHT22;7812;50.072;7.036;2022-09-27T04:52:12;8.80;99.90
15426;DHT22;7812;50.072;7.036;2022-09-27T04:54:40;8.70;99.90
15426;DHT22;7812;50.072;7.036;2022-09-27T04:57:06;8.60;99.90
15426;DHT22;7812;50.072;7.036;2022-09-27T04:59:31;8.60;99.90
15426;DHT22;7812;50.072;7.036;2022-09-27T05:01:57;8.60;99.90
15426;DHT22;7812;50.072;7.036;2022-09-27T05:04:26;8.60;99.90
15426;DHT22;7812;50.072;7.036;2022-09-27T05:06:52;8.60;99.90
15426;DHT22;7812;50.072;7.036;2022-09-27T05:09:18;8.60;99.90
15426;DHT22;7812;50.072;7.036;2022-09-27T05:11:44;8.50;99.90
15426;DHT22;7812;50.072;7.036;2022-09-27T05:14:10;8.60;99.90
15426;DHT22;7812;50.072;7.036;2022-09-27T05:16:36;8.60;99.90
15426;DHT22;7812;50.072;7.036;2022-09-27T05:19:02;8.50;99.90
15426;DHT22;7812;50.072;7.036;2022-09-27T05:21:28;8.50;99.90
15426;DHT22;7812;50.072;7.036;2022-09-27T05:23:56;8.40;99.90
15426;DHT22;7812;50.072;7.036;2022-09-27T05:26:23;8.40;99.90
15426;DHT22;7812;50.072;7.036;2022-09-27T05:28:49;8.40;99.90
15426;DHT22;7812;50.072;7.036;2022-09-27T05:31:14;8.40;99.90
15426;DHT22;7812;50.072;7.036;2022-09-27T05:33:40;8.40;99.90
15426;DHT22;7812;50.072;7.036;2022-09-27T05:36:07;8.40;99.90
15426;DHT22;7812;50.072;7.036;2022-09-27T05:38:33;8.40;99.90
15426;DHT22;7812;50.072;7.036;2022-09-27T05:41:01;8.40;99.90
15426;DHT22;7812;50.072;7.036;2022-09-27T05:43:27;8.30;99.90
15426;DHT22;7812;50.072;7.036;2022-09-27T05:45:53;8.20;99.90
15426;DHT22;7812;50.072;7.036;2022-09-27T05:48:19;8.30;99.90
15426;DHT22;7812;50.072;7.036;2022-09-27T05:50:46;8.30;99.90
15426;DHT22;7812;50.072;7.036;2022-09-27T05:53:12;8.30;99.90
15426;DHT22;7812;50.072;7.036;2022-09-27T05:55:38;8.30;99.90
15426;DHT22;7812;50.072;7.036;2022-09-27T05:58:06;8.20;99.90
15426;DHT22;7812;50.072;7.036;2022-09-27T06:00:33;8.20;99.90
15426;DHT22;7812;50.072;7.036;2022-09-27T06:03:00;8.20;99.90
15426;DHT22;7812;50.072;7.036;2022-09-27T06:05:28;8.20;99.90
15426;DHT22;7812;50.072;7.036;2022-09-27T06:07:59;8.30;99.90
15426;DHT22;7812;50.072;7.036;2022-09-27T06:10:26;8.30;99.90
15426;DHT22;7812;50.072;7.036;2022-09-27T06:12:52;8.40;99.90
15426;DHT22;7812;50.072;7.036;2022-09-27T06:15:18;8.50;99.90
15426;DHT22;7812;50.072;7.036;2022-09-27T06:17:44;8.60;99.90
15426;DHT22;7812;50.072;7.036;2022-09-27T06:20:09;8.70;99.90
15426;DHT22;7812;50.072;7.036;2022-09-27T06:22:35;8.60;99.90
15426;DHT22;7812;50.072;7.036;2022-09-27T06:25:02;8.60;99.90
15426;DHT22;7812;50.072;7.036;2022-09-27T06:27:30;8.50;99.90
15426;DHT22;7812;50.072;7.036;2022-09-27T06:29:55;8.60;99.90
15426;DHT22;7812;50.072;7.036;2022-09-27T06:32:21;8.60;99.90
15426;DHT22;7812;50.072;7.036;2022-09-27T06:34:47;8.70;99.90
15426;DHT22;7812;50.072;7.036;2022-09-27T06:37:12;8.80;99.90
15426;DHT22;7812;50.072;7.036;2022-09-27T06:39:39;8.90;99.90
15426;DHT22;7812;50.072;7.036;2022-09-27T06:42:05;8.90;99.90
15426;DHT22;7812;50.072;7.036;2022-09-27T06:44:32;8.90;99.90
15426;DHT22;7812;50.072;7.036;2022-09-27T06:46:57;8.90;99.90
15426;DHT22;7812;50.072;7.036;2022-09-27T06:49:23;9.00;99.90
15426;DHT22;7812;50.072;7.036;2022-09-27T06:51:50;8.90;99.90
15426;DHT22;7812;50.072;7.036;2022-09-27T06:54:17;9.00;99.90
15426;DHT22;7812;50.072;7.036;2022-09-27T06:56:46;9.00;99.90
15426;DHT22;7812;50.072;7.036;2022-09-27T06:59:11;9.00;99.90
15426;DHT22;7812;50.072;7.036;2022-09-27T07:01:56;9.10;99.90
15426;DHT22;7812;50.072;7.036;2022-09-27T07:04:22;9.20;99.90
15426;DHT22;7812;50.072;7.036;2022-09-27T07:06:49;9.20;99.90
15426;DHT22;7812;50.072;7.036;2022-09-27T07:09:15;9.20;99.90
15426;DHT22;7812;50.072;7.036;2022-09-27T07:11:43;9.20;99.90
15426;DHT22;7812;50.072;7.036;2022-09-27T07:14:10;9.30;99.90
15426;DHT22;7812;50.072;7.036;2022-09-27T07:16:36;9.50;99.90
15426;DHT22;7812;50.072;7.036;2022-09-27T07:19:03;9.70;99.90
15426;DHT22;7812;50.072;7.036;2022-09-27T07:21:32;10.20;99.90
15426;DHT22;7812;50.072;7.036;2022-09-27T07:23:58;10.60;99.90
15426;DHT22;7812;50.072;7.036;2022-09-27T07:26:23;10.90;99.90
15426;DHT22;7812;50.072;7.036;2022-09-27T07:28:49;11.30;99.90
15426;DHT22;7812;50.072;7.036;2022-09-27T07:31:15;11.80;99.90
15426;DHT22;7812;50.072;7.036;2022-09-27T07:33:41;12.70;99.90
15426;DHT22;7812;50.072;7.036;2022-09-27T07:36:08;13.30;99.90
15426;DHT22;7812;50.072;7.036;2022-09-27T07:38:34;13.90;99.90
15426;DHT22;7812;50.072;7.036;2022-09-27T07:41:08;13.30;99.90
15426;DHT22;7812;50.072;7.036;2022-09-27T07:43:35;12.40;99.90
15426;DHT22;7812;50.072;7.036;2022-09-27T07:46:00;12.00;99.90
15426;DHT22;7812;50.072;7.036;2022-09-27T07:48:26;12.50;99.90
15426;DHT22;7812;50.072;7.036;2022-09-27T07:50:53;13.40;99.90
15426;DHT22;7812;50.072;7.036;2022-09-27T07:53:18;14.30;99.90
15426;DHT22;7812;50.072;7.036;2022-09-27T07:55:49;14.70;99.90
15426;DHT22;7812;50.072;7.036;2022-09-27T07:58:16;14.80;99.90
15426;DHT22;7812;50.072;7.036;2022-09-27T08:00:42;15.00;99.90
15426;DHT22;7812;50.072;7.036;2022-09-27T08:03:13;14.30;99.90
15426;DHT22;7812;50.072;7.036;2022-09-27T08:05:46;13.50;99.90
15426;DHT22;7812;50.072;7.036;2022-09-27T08:08:13;12.10;99.90
15426;DHT22;7812;50.072;7.036;2022-09-27T08:10:39;11.60;99.90
15426;DHT22;7812;50.072;7.036;2022-09-27T08:13:13;11.10;99.90
15426;DHT22;7812;50.072;7.036;2022-09-27T08:15:39;11.30;99.90
15426;DHT22;7812;50.072;7.036;2022-09-27T08:18:05;11.30;99.90
15426;DHT22;7812;50.072;7.036;2022-09-27T08:20:34;11.70;99.90
15426;DHT22;7812;50.072;7.036;2022-09-27T08:22:59;12.10;99.90
15426;DHT22;7812;50.072;7.036;2022-09-27T08:25:25;12.70;99.90
15426;DHT22;7812;50.072;7.036;2022-09-27T08:27:56;13.60;99.90
15426;DHT22;7812;50.072;7.036;2022-09-27T08:30:23;13.80;99.90
15426;DHT22;7812;50.072;7.036;2022-09-27T08:32:49;12.90;99.90
15426;DHT22;7812;50.072;7.036;2022-09-27T08:35:14;12.20;99.90
15426;DHT22;7812;50.072;7.036;2022-09-27T08:37:40;11.80;99.90
15426;DHT22;7812;50.072;7.036;2022-09-27T08:40:06;11.40;99.90
15426;DHT22;7812;50.072;7.036;2022-09-27T08:47:39;11.20;99.90
15426;DHT22;7812;50.072;7.036;2022-09-27T08:55:37;11.30;99.90
15426;DHT22;7812;50.072;7.036;2022-09-27T08:58:24;11.90;99.90
15426;DHT22;7812;50.072;7.036;2022-09-27T09:00:52;12.40;99.90
15426;DHT22;7812;50.072;7.036;2022-09-27T09:03:25;12.40;99.90
15426;DHT22;7812;50.072;7.036;2022-09-27T09:20:28;12.00;99.90
15426;DHT22;7812;50.072;7.036;2022-09-27T09:22:32;11.80;99.90
15426;DHT22;7812;50.072;7.036;2022-09-27T09:33:43;11.60;99.90
15426;DHT22;7812;50.072;7.036;2022-09-27T09:36:28;12.00;99.90
15426;DHT22;7812;50.072;7.036;2022-09-27T09:38:58;12.60;99.90
15426;DHT22;7812;50.072;7.036;2022-09-27T09:44:51;12.00;99.90
15426;DHT22;7812;50.072;7.036;2022-09-27T09:52:48;11.30;99.90
15426;DHT22;7812;50.072;7.036;2022-09-27T09:57:53;11.30;99.90
15426;DHT22;7812;50.072;7.036;2022-09-27T10:00:21;11.30;99.90
15426;DHT22;7812;50.072;7.036;2022-09-27T10:02:48;11.30;99.90
15426;DHT22;7812;50.072;7.036;2022-09-27T10:05:22;11.20;99.90
15426;DHT22;7812;50.072;7.036;2022-09-27T10:07:50;11.10;99.90
15426;DHT22;7812;50.072;7.036;2022-09-27T10:10:18;10.70;99.90
15426;DHT22;7812;50.072;7.036;2022-09-27T10:12:45;10.40;99.90
15426;DHT22;7812;50.072;7.036;2022-09-27T10:15:23;10.30;99.90
15426;DHT22;7812;50.072;7.036;2022-09-27T10:17:52;10.40;99.90
15426;DHT22;7812;50.072;7.036;2022-09-27T10:23:05;10.90;99.90
15426;DHT22;7812;50.072;7.036;2022-09-27T10:25:53;11.20;99.90
15426;DHT22;7812;50.072;7.036;2022-09-27T10:33:30;11.30;99.90
15426;DHT22;7812;50.072;7.036;2022-09-27T10:35:57;11.80;99.90
15426;DHT22;7812;50.072;7.036;2022-09-27T10:38:33;12.30;99.90
15426;DHT22;7812;50.072;7.036;2022-09-27T10:43:42;12.20;99.90
15426;DHT22;7812;50.072;7.036;2022-09-27T10:48:34;11.80;99.90
15426;DHT22;7812;50.072;7.036;2022-09-27T10:51:20;11.60;99.90
15426;DHT22;7812;50.072;7.036;2022-09-27T10:53:47;11.40;99.90
15426;DHT22;7812;50.072;7.036;2022-09-27T10:56:21;11.40;99.90
15426;DHT22;7812;50.072;7.036;2022-09-27T10:58:48;11.60;99.90
15426;DHT22;7812;50.072;7.036;2022-09-27T11:01:15;11.60;99.90
15426;DHT22;7812;50.072;7.036;2022-09-27T11:03:58;11.70;99.90
15426;DHT22;7812;50.072;7.036;2022-09-27T11:08:51;12.20;99.90
15426;DHT22;7812;50.072;7.036;2022-09-27T11:14:17;13.90;99.90
15426;DHT22;7812;50.072;7.036;2022-09-27T11:17:31;14.80;99.90
15426;DHT22;7812;50.072;7.036;2022-09-27T11:33:51;12.60;99.90
15426;DHT22;7812;50.072;7.036;2022-09-27T12:06:20;12.20;99.90
15426;DHT22;7812;50.072;7.036;2022-09-27T12:09:16;12.20;99.90
15426;DHT22;7812;50.072;7.036;2022-09-27T12:12:09;12.50;99.90
15426;DHT22;7812;50.072;7.036;2022-09-27T12:14:44;12.80;99.90
15426;DHT22;7812;50.072;7.036;2022-09-27T12:17:24;12.90;99.90
15426;DHT22;7812;50.072;7.036;2022-09-27T12:19:54;12.90;99.90
15426;DHT22;7812;50.072;7.036;2022-09-27T12:22:49;13.00;99.90
15426;DHT22;7812;50.072;7.036;2022-09-27T12:25:16;13.10;99.90
15426;DHT22;7812;50.072;7.036;2022-09-27T12:27:46;13.20;99.90
15426;DHT22;7812;50.072;7.036;2022-09-27T12:30:14;13.50;99.90
15426;DHT22;7812;50.072;7.036;2022-09-27T12:40:50;13.00;99.90
15426;DHT22;7812;50.072;7.036;2022-09-27T12:43:26;13.30;99.90
15426;DHT22;7812;50.072;7.036;2022-09-27T12:46:11;13.50;99.90
15426;DHT22;7812;50.072;7.036;2022-09-27T12:51:14;13.20;99.90
15426;DHT22;7812;50.072;7.036;2022-09-27T13:12:40;13.30;99.90
15426;DHT22;7812;50.072;7.036;2022-09-27T13:17:59;12.80;99.90
15426;DHT22;7812;50.072;7.036;2022-09-27T13:23:02;12.80;99.90
15426;DHT22;7812;50.072;7.036;2022-09-27T13:46:45;12.90;99.90
15426;DHT22;7812;50.072;7.036;2022-09-27T13:51:55;12.90;99.90
15426;DHT22;7812;50.072;7.036;2022-09-27T13:54:52;12.90;99.90
15426;DHT22;7812;50.072;7.036;2022-09-27T13:57:54;13.00;99.90
15426;DHT22;7812;50.072;7.036;2022-09-27T14:00:29;12.90;99.90
15426;DHT22;7812;50.072;7.036;2022-09-27T14:03:16;12.70;99.90
15426;DHT22;7812;50.072;7.036;2022-09-27T14:05:51;12.50;99.90
15426;DHT22;7812;50.072;7.036;2022-09-27T14:08:42;12.40;99.90
15426;DHT22;7812;50.072;7.036;2022-09-27T14:11:32;12.30;99.90
15426;DHT22;7812;50.072;7.036;2022-09-27T14:13:59;12.30;99.90
15426;DHT22;7812;50.072;7.036;2022-09-27T14:16:31;12.00;99.90
15426;DHT22;7812;50.072;7.036;2022-09-27T14:18:58;11.60;99.90
15426;DHT22;7812;50.072;7.036;2022-09-27T14:21:29;11.10;99.90
15426;DHT22;7812;50.072;7.036;2022-09-27T14:26:47;9.90;99.90
15426;DHT22;7812;50.072;7.036;2022-09-27T14:29:20;9.50;99.90
15426;DHT22;7812;50.072;7.036;2022-09-27T14:32:01;9.40;99.90
15426;DHT22;7812;50.072;7.036;2022-09-27T14:34:27;9.30;99.90
15426;DHT22;7812;50.072;7.036;2022-09-27T14:36:53;9.30;99.90
15426;DHT22;7812;50.072;7.036;2022-09-27T14:39:38;9.40;99.90
15426;DHT22;7812;50.072;7.036;2022-09-27T14:42:19;9.40;99.90
15426;DHT22;7812;50.072;7.036;2022-09-27T14:44:47;9.40;99.90
15426;DHT22;7812;50.072;7.036;2022-09-27T14:52:26;9.60;99.90
15426;DHT22;7812;50.072;7.036;2022-09-27T14:54:56;9.70;99.90
15426;DHT22;7812;50.072;7.036;2022-09-27T14:57:23;9.70;99.90
15426;DHT22;7812;50.072;7.036;2022-09-27T14:59:49;9.80;99.90
15426;DHT22;7812;50.072;7.036;2022-09-27T15:02:18;9.80;99.90
15426;DHT22;7812;50.072;7.036;2022-09-27T15:04:46;9.90;99.90
15426;DHT22;7812;50.072;7.036;2022-09-27T15:07:12;10.00;99.90
15426;DHT22;7812;50.072;7.036;2022-09-27T15:09:42;10.10;99.90
15426;DHT22;7812;50.072;7.036;2022-09-27T15:12:14;10.10;99.90
15426;DHT22;7812;50.072;7.036;2022-09-27T15:14:47;10.10;99.90
15426;DHT22;7812;50.072;7.036;2022-09-27T15:17:18;10.20;99.90
15426;DHT22;7812;50.072;7.036;2022-09-27T15:20:02;10.20;99.90
15426;DHT22;7812;50.072;7.036;2022-09-27T15:22:49;10.20;99.90
15426;DHT22;7812;50.072;7.036;2022-09-27T15:27:53;10.30;99.90
15426;DHT22;7812;50.072;7.036;2022-09-27T15:30:25;10.30;99.90
15426;DHT22;7812;50.072;7.036;2022-09-27T15:32:53;10.20;99.90
15426;DHT22;7812;50.072;7.036;2022-09-27T15:35:31;9.90;99.90
15426;DHT22;7812;50.072;7.036;2022-09-27T15:46:37;9.30;99.90
15426;DHT22;7812;50.072;7.036;2022-09-27T15:49:30;9.20;99.90
15426;DHT22;7812;50.072;7.036;2022-09-27T15:52:00;9.10;99.90
15426;DHT22;7812;50.072;7.036;2022-09-27T15:54:28;9.00;99.90
15426;DHT22;7812;50.072;7.036;2022-09-27T15:56:59;9.00;99.90
15426;DHT22;7812;50.072;7.036;2022-09-27T15:59:28;9.00;99.90
15426;DHT22;7812;50.072;7.036;2022-09-27T16:01:59;9.00;99.90
15426;DHT22;7812;50.072;7.036;2022-09-27T16:04:26;9.00;99.90
15426;DHT22;7812;50.072;7.036;2022-09-27T16:06:54;9.00;99.90
15426;DHT22;7812;50.072;7.036;2022-09-27T16:09:20;9.00;99.90
15426;DHT22;7812;50.072;7.036;2022-09-27T16:11:47;9.00;99.90
15426;DHT22;7812;50.072;7.036;2022-09-27T16:14:14;8.90;99.90
15426;DHT22;7812;50.072;7.036;2022-09-27T16:16:50;8.90;99.90
15426;DHT22;7812;50.072;7.036;2022-09-27T16:19:16;8.80;99.90
15426;DHT22;7812;50.072;7.036;2022-09-27T16:21:42;8.70;99.90
15426;DHT22;7812;50.072;7.036;2022-09-27T16:24:09;8.70;99.90
15426;DHT22;7812;50.072;7.036;2022-09-27T16:26:35;8.70;99.90
15426;DHT22;7812;50.072;7.036;2022-09-27T16:29:01;8.60;99.90
15426;DHT22;7812;50.072;7.036;2022-09-27T16:31:26;8.60;99.90
15426;DHT22;7812;50.072;7.036;2022-09-27T16:33:52;8.40;99.90
15426;DHT22;7812;50.072;7.036;2022-09-27T16:36:18;8.40;99.90
15426;DHT22;7812;50.072;7.036;2022-09-27T16:38:52;8.40;99.90
15426;DHT22;7812;50.072;7.036;2022-09-27T16:41:19;8.40;99.90
15426;DHT22;7812;50.072;7.036;2022-09-27T16:43:46;8.40;99.90
15426;DHT22;7812;50.072;7.036;2022-09-27T16:46:12;8.40;99.90
15426;DHT22;7812;50.072;7.036;2022-09-27T16:48:40;8.50;99.90
15426;DHT22;7812;50.072;7.036;2022-09-27T16:51:10;8.50;99.90
15426;DHT22;7812;50.072;7.036;2022-09-27T16:53:55;8.40;99.90
15426;DHT22;7812;50.072;7.036;2022-09-27T16:56:21;8.50;99.90
15426;DHT22;7812;50.072;7.036;2022-09-27T16:58:47;8.50;99.90
15426;DHT22;7812;50.072;7.036;2022-09-27T17:01:13;8.60;99.90
15426;DHT22;7812;50.072;7.036;2022-09-27T17:03:47;8.50;99.90
15426;DHT22;7812;50.072;7.036;2022-09-27T17:06:14;8.50;99.90
15426;DHT22;7812;50.072;7.036;2022-09-27T17:08:40;8.30;99.90
15426;DHT22;7812;50.072;7.036;2022-09-27T17:11:05;8.20;99.90
15426;DHT22;7812;50.072;7.036;2022-09-27T17:13:32;8.30;99.90
15426;DHT22;7812;50.072;7.036;2022-09-27T17:15:58;8.20;99.90
15426;DHT22;7812;50.072;7.036;2022-09-27T17:18:23;8.20;99.90
15426;DHT22;7812;50.072;7.036;2022-09-27T17:20:49;8.10;99.90
15426;DHT22;7812;50.072;7.036;2022-09-27T17:23:15;8.20;99.90
15426;DHT22;7812;50.072;7.036;2022-09-27T17:25:40;8.20;99.90
15426;DHT22;7812;50.072;7.036;2022-09-27T17:28:06;8.20;99.90
15426;DHT22;7812;50.072;7.036;2022-09-27T17:30:32;8.20;99.90
15426;DHT22;7812;50.072;7.036;2022-09-27T17:32:59;8.10;99.90
15426;DHT22;7812;50.072;7.036;2022-09-27T17:35:25;8.00;99.90
15426;DHT22;7812;50.072;7.036;2022-09-27T17:37:50;8.00;99.90
15426;DHT22;7812;50.072;7.036;2022-09-27T17:40:16;8.00;99.90
15426;DHT22;7812;50.072;7.036;2022-09-27T17:42:42;7.90;99.90
15426;DHT22;7812;50.072;7.036;2022-09-27T17:45:10;7.80;99.90
15426;DHT22;7812;50.072;7.036;2022-09-27T17:47:36;7.70;99.90
15426;DHT22;7812;50.072;7.036;2022-09-27T17:50:22;7.60;99.90
15426;DHT22;7812;50.072;7.036;2022-09-27T17:52:52;7.60;99.90
15426;DHT22;7812;50.072;7.036;2022-09-27T17:55:18;7.70;99.90
15426;DHT22;7812;50.072;7.036;2022-09-27T17:57:46;7.80;99.90
15426;DHT22;7812;50.072;7.036;2022-09-27T18:00:13;7.80;99.90
15426;DHT22;7812;50.072;7.036;2022-09-27T18:02:39;7.90;99.90
15426;DHT22;7812;50.072;7.036;2022-09-27T18:05:05;8.00;99.90
15426;DHT22;7812;50.072;7.036;2022-09-27T18:07:31;8.00;99.90
15426;DHT22;7812;50.072;7.036;2022-09-27T18:09:58;8.10;99.90
15426;DHT22;7812;50.072;7.036;2022-09-27T18:12:24;8.10;99.90
15426;DHT22;7812;50.072;7.036;2022-09-27T18:14:57;8.10;99.90
15426;DHT22;7812;50.072;7.036;2022-09-27T18:17:23;8.10;99.90
15426;DHT22;7812;50.072;7.036;2022-09-27T18:19:49;8.10;99.90
15426;DHT22;7812;50.072;7.036;2022-09-27T18:22:14;8.10;99.90
15426;DHT22;7812;50.072;7.036;2022-09-27T18:24:40;8.00;99.90
15426;DHT22;7812;50.072;7.036;2022-09-27T18:27:06;8.10;99.90
15426;DHT22;7812;50.072;7.036;2022-09-27T18:29:31;8.10;99.90
15426;DHT22;7812;50.072;7.036;2022-09-27T18:31:57;8.10;99.90
15426;DHT22;7812;50.072;7.036;2022-09-27T18:34:23;8.00;99.90
15426;DHT22;7812;50.072;7.036;2022-09-27T18:36:49;7.90;99.90
15426;DHT22;7812;50.072;7.036;2022-09-27T18:39:16;7.90;99.90
15426;DHT22;7812;50.072;7.036;2022-09-27T18:41:45;7.90;99.90
15426;DHT22;7812;50.072;7.036;2022-09-27T18:44:13;8.00;99.90
15426;DHT22;7812;50.072;7.036;2022-09-27T18:46:40;7.90;99.90
15426;DHT22;7812;50.072;7.036;2022-09-27T18:49:08;7.70;99.90
15426;DHT22;7812;50.072;7.036;2022-09-27T18:51:35;7.70;99.90
15426;DHT22;7812;50.072;7.036;2022-09-27T18:54:14;7.70;99.90
15426;DHT22;7812;50.072;7.036;2022-09-27T18:56:40;7.60;99.90
15426;DHT22;7812;50.072;7.036;2022-09-27T18:59:07;7.60;99.90
15426;DHT22;7812;50.072;7.036;2022-09-27T19:01:37;7.60;99.90
15426;DHT22;7812;50.072;7.036;2022-09-27T19:04:10;7.60;99.90
15426;DHT22;7812;50.072;7.036;2022-09-27T19:06:37;7.60;99.90
15426;DHT22;7812;50.072;7.036;2022-09-27T19:09:05;7.70;99.90
15426;DHT22;7812;50.072;7.036;2022-09-27T19:11:31;7.80;99.90
15426;DHT22;7812;50.072;7.036;2022-09-27T19:13:58;7.80;99.90
15426;DHT22;7812;50.072;7.036;2022-09-27T19:16:26;7.80;99.90
15426;DHT22;7812;50.072;7.036;2022-09-27T19:18:52;7.80;99.90
15426;DHT22;7812;50.072;7.036;2022-09-27T19:21:27;7.80;99.90
15426;DHT22;7812;50.072;7.036;2022-09-27T19:23:53;7.70;99.90
15426;DHT22;7812;50.072;7.036;2022-09-27T19:26:22;7.60;99.90
15426;DHT22;7812;50.072;7.036;2022-09-27T19:28:51;7.60;99.90
15426;DHT22;7812;50.072;7.036;2022-09-27T19:31:23;7.50;99.90
15426;DHT22;7812;50.072;7.036;2022-09-27T19:33:49;7.50;99.90
15426;DHT22;7812;50.072;7.036;2022-09-27T19:36:16;7.50;99.90
15426;DHT22;7812;50.072;7.036;2022-09-27T19:38:42;7.50;99.90
15426;DHT22;7812;50.072;7.036;2022-09-27T19:41:11;7.60;99.90
15426;DHT22;7812;50.072;7.036;2022-09-27T19:43:37;7.60;99.90
15426;DHT22;7812;50.072;7.036;2022-09-27T19:46:06;7.60;99.90
15426;DHT22;7812;50.072;7.036;2022-09-27T19:48:34;7.50;99.90
15426;DHT22;7812;50.072;7.036;2022-09-27T19:51:00;7.40;99.90
15426;DHT22;7812;50.072;7.036;2022-09-27T19:53:27;7.40;99.90
15426;DHT22;7812;50.072;7.036;2022-09-27T19:56:05;7.20;99.90
15426;DHT22;7812;50.072;7.036;2022-09-27T19:58:33;7.20;99.90
15426;DHT22;7812;50.072;7.036;2022-09-27T20:01:11;7.20;99.90
15426;DHT22;7812;50.072;7.036;2022-09-27T20:03:39;7.10;99.90
15426;DHT22;7812;50.072;7.036;2022-09-27T20:06:07;7.10;99.90
15426;DHT22;7812;50.072;7.036;2022-09-27T20:08:33;7.00;99.90
15426;DHT22;7812;50.072;7.036;2022-09-27T20:11:08;7.10;99.90